createdAt,value
2022-11-05T00:01:03.634Z,3.97
2022-11-05T00:03:49.616Z,2.90
2022-11-05T00:06:35.583Z,3.40
2022-11-05T00:09:21.804Z,3.13
2022-11-05T00:12:07.577Z,3.10
2022-11-05T00:14:54.217Z,3.30
2022-11-05T00:17:21.370Z,2.97
2022-11-05T00:19:48.519Z,3.30
2022-11-05T00:22:34.607Z,3.20
2022-11-05T00:25:14.016Z,3.37
2022-11-05T00:27:41.225Z,3.20
2022-11-05T00:30:09.546Z,2.80
2022-11-05T00:32:37.308Z,3.00
2022-11-05T00:35:06.697Z,3.20
2022-11-05T00:37:33.979Z,3.10
2022-11-05T00:40:01.280Z,3.13
2022-11-05T00:42:47.070Z,3.37
2022-11-05T00:45:14.820Z,3.77
2022-11-05T00:48:01.059Z,2.60
2022-11-05T00:50:28.790Z,3.30
2022-11-05T00:53:00.227Z,3.90
2022-11-05T00:55:29.289Z,3.23
2022-11-05T00:57:57.552Z,3.07
2022-11-05T01:00:27.721Z,5.10
2022-11-05T01:02:58.614Z,3.80
2022-11-05T01:05:26.511Z,3.50
2022-11-05T01:07:53.892Z,3.30
2022-11-05T01:10:21.768Z,3.80
2022-11-05T01:12:49.645Z,3.47
2022-11-05T01:15:20.276Z,3.50
2022-11-05T01:17:47.601Z,3.27
2022-11-05T01:20:15.045Z,3.87
2022-11-05T01:22:42.434Z,3.57
2022-11-05T01:25:10.364Z,3.50
2022-11-05T01:27:38.355Z,3.67
2022-11-05T01:30:08.558Z,3.60
2022-11-05T01:32:36.705Z,4.53
2022-11-05T01:35:05.963Z,3.90
2022-11-05T01:37:34.575Z,4.20
2022-11-05T01:40:02.202Z,4.33
2022-11-05T01:42:32.431Z,4.40
2022-11-05T01:45:19.028Z,3.13
2022-11-05T01:48:01.116Z,4.33
2022-11-05T01:50:38.835Z,3.47
2022-11-05T01:53:28.673Z,3.70
2022-11-05T01:56:08.928Z,3.70
2022-11-05T01:58:57.728Z,3.80
2022-11-05T02:01:24.980Z,3.70
2022-11-05T02:03:57.833Z,4.10
2022-11-05T02:06:27.324Z,4.10
2022-11-05T02:09:12.702Z,4.47
2022-11-05T02:11:40.077Z,4.67
2022-11-05T02:14:07.252Z,4.47
2022-11-05T02:17:00.844Z,5.50
2022-11-05T02:19:47.224Z,4.73
2022-11-05T02:22:49.781Z,5.10
2022-11-05T02:25:44.400Z,5.10
2022-11-05T02:28:20.138Z,4.30
2022-11-05T02:31:05.019Z,4.67
2022-11-05T02:33:35.507Z,4.97
2022-11-05T02:36:24.701Z,6.03
2022-11-05T02:39:28.071Z,4.63
2022-11-05T02:42:11.432Z,5.43
2022-11-05T02:44:52.814Z,5.40
2022-11-05T02:47:29.308Z,5.80
2022-11-05T02:50:23.381Z,6.10
2022-11-05T02:53:01.768Z,5.27
2022-11-05T02:55:59.254Z,6.30
2022-11-05T02:58:30.475Z,5.00
2022-11-05T03:00:59.055Z,5.57
2022-11-05T03:03:46.925Z,5.50
2022-11-05T03:06:44.275Z,5.57
2022-11-05T03:09:39.358Z,4.97
2022-11-05T03:12:21.409Z,5.77
2022-11-05T03:15:00.460Z,5.43
2022-11-05T03:17:56.753Z,6.20
2022-11-05T03:20:39.511Z,5.90
2022-11-05T03:23:45.931Z,5.70
2022-11-05T03:26:22.556Z,5.43
2022-11-05T03:28:55.710Z,6.37
2022-11-05T03:31:24.818Z,5.20
2022-11-05T03:33:54.844Z,5.80
2022-11-05T03:36:30.844Z,6.20
2022-11-05T03:39:04.471Z,5.37
2022-11-05T03:41:33.744Z,5.83
2022-11-05T03:44:05.328Z,5.10
2022-11-05T03:46:49.194Z,5.00
2022-11-05T03:49:23.979Z,4.53
2022-11-05T03:52:14.333Z,5.30
2022-11-05T03:54:41.545Z,5.57
2022-11-05T03:57:23.418Z,4.83
2022-11-05T03:59:51.142Z,4.90
2022-11-05T04:02:20.173Z,5.80
2022-11-05T04:04:47.801Z,6.03
2022-11-05T04:07:33.510Z,5.63
2022-11-05T04:10:19.676Z,6.10
2022-11-05T04:13:06.029Z,5.60
2022-11-05T04:15:53.148Z,5.87
2022-11-05T04:18:20.341Z,5.60
2022-11-05T04:21:06.453Z,5.30
2022-11-05T04:23:52.210Z,5.57
2022-11-05T04:26:23.123Z,5.33
2022-11-05T04:29:09.949Z,5.20
2022-11-05T04:31:37.936Z,6.67
2022-11-05T04:34:05.591Z,6.20
2022-11-05T04:36:32.869Z,5.50
2022-11-05T04:39:00.228Z,6.10
2022-11-05T04:41:27.442Z,4.80
2022-11-05T04:43:54.640Z,6.10
2022-11-05T04:46:21.850Z,6.13
2022-11-05T04:48:49.025Z,6.10
2022-11-05T04:51:16.229Z,6.23
2022-11-05T04:53:43.392Z,6.37
2022-11-05T04:56:24.424Z,5.70
2022-11-05T04:58:51.612Z,6.23
2022-11-05T05:01:21.371Z,5.93
2022-11-05T05:03:50.455Z,7.47
2022-11-05T05:06:18.519Z,7.03
2022-11-05T05:08:50.476Z,6.60
2022-11-05T05:11:20.280Z,6.53
2022-11-05T05:13:49.102Z,6.03
2022-11-05T05:16:25.059Z,6.43
2022-11-05T05:18:53.225Z,5.90
2022-11-05T05:21:41.020Z,5.80
2022-11-05T05:24:14.233Z,6.23
2022-11-05T05:26:47.274Z,6.47
2022-11-05T05:29:15.224Z,5.70
2022-11-05T05:31:42.640Z,6.27
2022-11-05T05:34:14.515Z,6.03
2022-11-05T05:36:42.105Z,5.70
2022-11-05T05:39:10.919Z,5.60
2022-11-05T05:41:38.200Z,5.80
2022-11-05T05:44:06.490Z,5.30
2022-11-05T05:46:33.928Z,5.30
2022-11-05T05:49:01.064Z,5.60
2022-11-05T05:51:28.288Z,6.33
2022-11-05T05:53:55.407Z,6.23
2022-11-05T05:56:23.048Z,5.90
2022-11-05T05:58:50.225Z,5.50
2022-11-05T06:01:19.600Z,5.40
2022-11-05T06:03:48.715Z,5.80
2022-11-05T06:06:21.083Z,6.27
2022-11-05T06:08:48.909Z,6.20
2022-11-05T06:11:16.138Z,6.60
2022-11-05T06:13:43.456Z,6.33
2022-11-05T06:16:11.195Z,6.43
2022-11-05T06:18:38.773Z,6.70
2022-11-05T06:21:12.497Z,6.00
2022-11-05T06:23:41.484Z,6.07
2022-11-05T06:26:11.161Z,6.00
2022-11-05T06:28:38.513Z,6.27
2022-11-05T06:31:06.004Z,6.60
2022-11-05T06:33:33.143Z,6.37
2022-11-05T06:36:01.980Z,6.40
2022-11-05T06:38:32.604Z,5.63
2022-11-05T06:41:00.496Z,6.17
2022-11-05T06:43:29.180Z,5.63
2022-11-05T06:45:56.987Z,6.00
2022-11-05T06:48:25.332Z,5.70
2022-11-05T06:50:53.205Z,5.60
2022-11-05T06:53:20.989Z,5.77
2022-11-05T06:55:48.147Z,6.00
2022-11-05T06:58:15.757Z,5.30
2022-11-05T07:00:43.055Z,5.87
2022-11-05T07:03:12.915Z,5.63
2022-11-05T07:05:46.303Z,6.33
2022-11-05T07:08:14.123Z,5.87
2022-11-05T07:10:42.332Z,6.03
2022-11-05T07:13:09.630Z,5.53
2022-11-05T07:15:37.414Z,4.93
2022-11-05T07:18:07.085Z,5.70
2022-11-05T07:20:34.711Z,5.57
2022-11-05T07:23:02.453Z,5.83
2022-11-05T07:25:31.062Z,4.70
2022-11-05T07:27:58.311Z,6.03
2022-11-05T07:30:25.945Z,4.97
2022-11-05T07:32:53.451Z,4.80
2022-11-05T07:35:20.754Z,6.27
2022-11-05T07:37:53.960Z,4.90
2022-11-05T07:40:22.766Z,4.50
2022-11-05T07:42:53.106Z,5.17
2022-11-05T07:45:20.959Z,5.80
2022-11-05T07:47:50.012Z,5.53
2022-11-05T07:50:18.907Z,4.70
2022-11-05T07:52:47.897Z,6.00
2022-11-05T07:55:16.011Z,5.67
2022-11-05T07:57:44.779Z,5.70
2022-11-05T08:00:18.025Z,4.87
2022-11-05T08:02:55.431Z,4.10
2022-11-05T08:05:22.758Z,5.20
2022-11-05T08:07:50.018Z,5.20
2022-11-05T08:10:17.204Z,5.50
2022-11-05T08:12:44.554Z,4.60
2022-11-05T08:15:11.707Z,4.47
2022-11-05T08:17:38.977Z,4.97
2022-11-05T08:20:06.668Z,4.87
2022-11-05T08:22:33.934Z,5.60
2022-11-05T08:25:06.449Z,5.90
2022-11-05T08:27:34.245Z,4.53
2022-11-05T08:30:01.658Z,5.17
2022-11-05T08:32:28.885Z,4.93
2022-11-05T08:34:56.009Z,4.07
2022-11-05T08:37:23.443Z,3.40
2022-11-05T08:39:51.677Z,4.10
2022-11-05T08:42:18.927Z,3.07
2022-11-05T08:44:46.059Z,3.70
2022-11-05T08:47:13.235Z,3.23
2022-11-05T08:49:40.369Z,3.50
2022-11-05T08:52:07.569Z,3.83
2022-11-05T08:54:35.222Z,2.30
2022-11-05T08:57:02.406Z,2.70
2022-11-05T08:59:31.267Z,2.60
2022-11-05T09:01:58.472Z,2.90
2022-11-05T09:04:25.805Z,3.17
2022-11-05T09:06:53.456Z,2.20
2022-11-05T09:09:20.889Z,2.30
2022-11-05T09:12:11.303Z,2.40
2022-11-05T09:14:35.695Z,2.40
2022-11-05T09:17:02.922Z,2.30
2022-11-05T09:19:30.536Z,2.13
2022-11-05T09:21:59.307Z,2.27
2022-11-05T09:24:26.864Z,2.30
2022-11-05T09:26:54.177Z,2.03
2022-11-05T09:29:21.437Z,2.00
2022-11-05T09:31:48.645Z,2.07
2022-11-05T09:34:15.803Z,2.20
2022-11-05T09:36:43.100Z,2.13
2022-11-05T09:39:11.694Z,1.90
2022-11-05T09:41:41.066Z,2.50
2022-11-05T09:44:25.739Z,2.30
2022-11-05T09:47:04.189Z,2.43
2022-11-05T09:49:42.307Z,2.00
2022-11-05T09:52:16.913Z,2.50
2022-11-05T09:54:45.936Z,1.80
2022-11-05T09:57:17.332Z,1.80
2022-11-05T09:59:48.259Z,2.07
2022-11-05T10:02:22.000Z,2.63
2022-11-05T10:04:53.598Z,2.03
2022-11-05T10:07:26.121Z,2.13
2022-11-05T10:09:58.871Z,1.77
2022-11-05T10:12:36.303Z,1.77
2022-11-05T10:15:14.358Z,1.70
2022-11-05T10:17:47.575Z,2.40
2022-11-05T10:20:36.919Z,1.90
2022-11-05T10:23:19.853Z,1.90
2022-11-05T10:26:14.698Z,1.90
2022-11-05T10:28:41.984Z,1.80
2022-11-05T10:31:14.288Z,1.77
2022-11-05T10:33:48.350Z,2.00
2022-11-05T10:36:20.264Z,1.77
2022-11-05T10:38:47.505Z,1.90
2022-11-05T10:41:40.177Z,1.57
2022-11-05T10:44:26.531Z,2.27
2022-11-05T10:47:06.753Z,1.63
2022-11-05T10:50:01.345Z,1.50
2022-11-05T10:52:51.263Z,1.60
2022-11-05T10:55:28.964Z,1.80
2022-11-05T10:58:09.347Z,1.80
2022-11-05T11:00:37.296Z,1.80
2022-11-05T11:03:06.050Z,1.80
2022-11-05T11:05:39.960Z,2.53
2022-11-05T11:08:13.508Z,2.23
2022-11-05T11:10:48.839Z,2.33
2022-11-05T11:13:22.229Z,2.50
2022-11-05T11:15:51.041Z,1.80
2022-11-05T11:18:34.689Z,1.97
2022-11-05T11:21:27.294Z,1.93
2022-11-05T11:24:02.774Z,1.80
2022-11-05T11:26:33.369Z,2.10
2022-11-05T11:29:21.219Z,2.07
2022-11-05T11:31:48.551Z,1.53
2022-11-05T11:34:33.649Z,1.97
2022-11-05T11:37:15.291Z,1.83
2022-11-05T11:39:56.779Z,1.63
2022-11-05T11:42:33.313Z,1.80
2022-11-05T11:45:07.118Z,2.30
2022-11-05T11:47:34.477Z,1.80
2022-11-05T11:50:02.605Z,1.50
2022-11-05T11:52:39.581Z,2.00
2022-11-05T11:55:12.823Z,1.87
2022-11-05T11:58:07.072Z,1.70
2022-11-05T12:00:41.116Z,1.60
2022-11-05T12:03:35.248Z,1.70
2022-11-05T12:06:23.608Z,1.80
2022-11-05T12:09:14.113Z,2.10
2022-11-05T12:11:55.583Z,1.80
2022-11-05T12:14:48.693Z,1.30
2022-11-05T12:17:47.154Z,1.87
2022-11-05T12:20:33.720Z,1.80
2022-11-05T12:23:25.591Z,1.90
2022-11-05T12:26:11.310Z,1.90
2022-11-05T12:29:17.366Z,1.50
2022-11-05T12:32:17.143Z,1.73
2022-11-05T12:35:00.845Z,1.57
2022-11-05T12:37:46.092Z,1.90
2022-11-05T12:40:39.882Z,2.20
2022-11-05T12:43:31.151Z,1.93
2022-11-05T12:46:37.119Z,1.87
2022-11-05T12:49:31.347Z,1.70
2022-11-05T12:52:41.322Z,2.00
2022-11-05T12:55:21.751Z,2.17
2022-11-05T12:57:56.167Z,1.83
2022-11-05T13:00:25.579Z,2.20
2022-11-05T13:03:13.186Z,2.27
2022-11-05T13:05:47.737Z,2.70
2022-11-05T13:08:22.979Z,2.00
2022-11-05T13:10:58.128Z,1.90
2022-11-05T13:13:40.038Z,1.90
2022-11-05T13:16:19.498Z,2.30
2022-11-05T13:18:57.323Z,2.40
2022-11-05T13:21:28.432Z,2.10
2022-11-05T13:24:05.900Z,2.53
2022-11-05T13:26:43.627Z,2.30
2022-11-05T13:29:17.788Z,2.30
2022-11-05T13:31:57.837Z,2.53
2022-11-05T13:34:25.037Z,2.30
2022-11-05T13:37:19.221Z,2.40
2022-11-05T13:40:07.202Z,2.70
2022-11-05T13:43:08.713Z,2.40
2022-11-05T13:45:54.434Z,3.50
2022-11-05T13:48:36.715Z,2.60
2022-11-05T13:51:39.495Z,2.50
2022-11-05T13:54:42.256Z,2.30
2022-11-05T13:57:20.856Z,2.37
2022-11-05T14:00:21.542Z,2.00
2022-11-05T14:03:00.111Z,2.40
2022-11-05T14:05:31.970Z,2.40
2022-11-05T14:08:02.441Z,2.57
2022-11-05T14:10:35.859Z,2.50
2022-11-05T14:13:25.115Z,2.13
2022-11-05T14:15:58.307Z,2.80
2022-11-05T14:18:39.993Z,3.00
2022-11-05T14:21:27.130Z,2.40
2022-11-05T14:23:59.523Z,2.90
2022-11-05T14:26:29.598Z,3.20
2022-11-05T14:29:02.867Z,3.00
2022-11-05T14:32:08.478Z,2.77
2022-11-05T14:34:45.534Z,3.10
2022-11-05T14:37:12.813Z,3.13
2022-11-05T14:39:40.823Z,3.00
2022-11-05T14:42:26.377Z,3.37
2022-11-05T14:45:32.698Z,3.30
2022-11-05T14:48:03.067Z,3.13
2022-11-05T14:50:36.044Z,2.80
2022-11-05T14:53:12.789Z,3.13
2022-11-05T14:55:43.004Z,3.50
2022-11-05T14:58:19.240Z,2.87
2022-11-05T15:00:47.850Z,3.30
2022-11-05T15:03:45.933Z,3.27
2022-11-05T15:06:31.404Z,3.10
2022-11-05T15:09:15.672Z,3.20
2022-11-05T15:12:02.275Z,3.70
2022-11-05T15:14:47.477Z,3.37
2022-11-05T15:17:30.200Z,3.57
2022-11-05T15:20:08.500Z,3.20
2022-11-05T15:22:40.581Z,3.93
2022-11-05T15:25:20.366Z,3.40
2022-11-05T15:28:07.831Z,3.20
2022-11-05T15:30:34.999Z,3.20
2022-11-05T15:33:20.191Z,3.40
2022-11-05T15:35:47.657Z,3.10
2022-11-05T15:38:35.685Z,3.40
2022-11-05T15:41:06.260Z,3.90
2022-11-05T15:43:33.611Z,3.53
2022-11-05T15:46:05.532Z,3.63
2022-11-05T15:48:34.403Z,3.80
2022-11-05T15:51:01.879Z,3.20
2022-11-05T15:54:23.815Z,3.30
2022-11-05T15:56:46.124Z,3.47
2022-11-05T15:59:19.338Z,4.30
2022-11-05T16:01:52.844Z,3.30
2022-11-05T16:04:30.578Z,3.60
2022-11-05T16:07:10.025Z,4.10
2022-11-05T16:09:41.127Z,3.17
2022-11-05T16:12:24.972Z,4.30
2022-11-05T16:15:10.504Z,3.80
2022-11-05T16:17:53.253Z,3.53
2022-11-05T16:20:35.240Z,3.37
2022-11-05T16:23:08.258Z,3.60
2022-11-05T16:25:42.242Z,4.17
2022-11-05T16:28:20.285Z,4.23
2022-11-05T16:30:57.935Z,4.10
2022-11-05T16:33:30.714Z,3.63
2022-11-05T16:35:58.255Z,4.33
2022-11-05T16:38:25.596Z,4.50
2022-11-05T16:40:52.753Z,4.40
2022-11-05T16:43:25.481Z,5.30
2022-11-05T16:45:54.363Z,4.70
2022-11-05T16:48:21.808Z,5.80
2022-11-05T16:50:49.563Z,5.10
2022-11-05T16:53:16.923Z,5.23
2022-11-05T16:55:45.468Z,5.20
2022-11-05T16:58:20.847Z,4.93
2022-11-05T17:00:49.636Z,5.07
2022-11-05T17:03:17.138Z,4.60
2022-11-05T17:05:44.685Z,5.03
2022-11-05T17:08:12.564Z,5.30
2022-11-05T17:10:39.815Z,4.80
2022-11-05T17:13:06.959Z,4.53
2022-11-05T17:15:35.468Z,5.50
2022-11-05T17:18:04.497Z,5.13
2022-11-05T17:20:40.225Z,5.43
2022-11-05T17:23:11.240Z,4.30
2022-11-05T17:25:40.393Z,5.00
2022-11-05T17:28:08.278Z,5.63
2022-11-05T17:30:36.300Z,4.87
2022-11-05T17:33:04.350Z,5.10
2022-11-05T17:35:32.143Z,4.80
2022-11-05T17:37:59.669Z,5.40
2022-11-05T17:40:28.276Z,5.60
2022-11-05T17:42:55.771Z,5.53
2022-11-05T17:45:23.229Z,5.47
2022-11-05T17:47:50.560Z,5.23
2022-11-05T17:50:18.304Z,5.80
2022-11-05T17:52:46.947Z,5.37
2022-11-05T17:55:17.703Z,5.57
2022-11-05T17:57:51.491Z,6.50
2022-11-05T18:00:21.753Z,6.30
2022-11-05T18:02:49.836Z,6.40
2022-11-05T18:05:18.595Z,7.10
2022-11-05T18:07:46.730Z,6.07
2022-11-05T18:10:14.999Z,6.17
2022-11-05T18:12:43.632Z,6.73
2022-11-05T18:15:12.122Z,6.10
2022-11-05T18:17:40.041Z,6.23
2022-11-05T18:20:14.209Z,6.40
2022-11-05T18:22:46.423Z,5.77
2022-11-05T18:25:14.061Z,6.83
2022-11-05T18:27:41.528Z,6.80
2022-11-05T18:30:09.975Z,7.50
2022-11-05T18:32:38.595Z,6.47
2022-11-05T18:35:06.008Z,7.37
2022-11-05T18:37:33.332Z,7.60
2022-11-05T18:40:00.665Z,7.30
2022-11-05T18:42:28.055Z,8.47
2022-11-05T18:44:55.689Z,8.33
2022-11-05T18:47:23.040Z,6.67
2022-11-05T18:49:50.407Z,6.43
2022-11-05T18:52:17.749Z,7.53
2022-11-05T18:54:45.203Z,6.57
2022-11-05T18:57:12.584Z,7.07
2022-11-05T18:59:42.028Z,8.30
2022-11-05T19:02:11.316Z,7.50
2022-11-05T19:04:46.795Z,7.50
2022-11-05T19:07:23.715Z,6.57
2022-11-05T19:09:51.517Z,6.93
2022-11-05T19:12:19.886Z,6.17
2022-11-05T19:14:49.181Z,6.87
2022-11-05T19:17:16.509Z,6.03
2022-11-05T19:19:44.130Z,7.50
2022-11-05T19:22:11.564Z,6.90
2022-11-05T19:24:38.858Z,6.07
2022-11-05T19:27:06.135Z,5.47
2022-11-05T19:29:33.431Z,6.20
2022-11-05T19:32:00.802Z,6.50
2022-11-05T19:34:28.241Z,7.07
2022-11-05T19:36:55.387Z,6.93
2022-11-05T19:39:22.542Z,7.17
2022-11-05T19:41:50.019Z,6.23
2022-11-05T19:44:17.305Z,6.60
2022-11-05T19:46:45.063Z,6.47
2022-11-05T19:49:12.275Z,6.57
2022-11-05T19:51:40.018Z,7.93
2022-11-05T19:54:08.843Z,6.67
2022-11-05T19:56:36.833Z,6.63
2022-11-05T19:59:06.415Z,6.93
2022-11-05T20:01:34.385Z,7.67
2022-11-05T20:04:05.472Z,7.10
2022-11-05T20:06:37.729Z,7.20
2022-11-05T20:09:21.795Z,7.60
2022-11-05T20:11:54.726Z,7.20
2022-11-05T20:14:23.429Z,7.47
2022-11-05T20:16:50.950Z,7.70
2022-11-05T20:19:20.166Z,7.20
2022-11-05T20:21:47.807Z,7.97
2022-11-05T20:24:23.752Z,8.00
2022-11-05T20:26:55.806Z,7.40
2022-11-05T20:29:26.117Z,7.40
2022-11-05T20:31:57.768Z,9.47
2022-11-05T20:34:25.188Z,8.57
2022-11-05T20:36:52.641Z,8.47
2022-11-05T20:39:21.132Z,8.10
2022-11-05T20:41:48.362Z,7.83
2022-11-05T20:44:15.689Z,8.07
2022-11-05T20:46:43.365Z,7.60
2022-11-05T20:49:10.794Z,8.80
2022-11-05T20:51:38.307Z,8.10
2022-11-05T20:54:05.711Z,8.13
2022-11-05T20:56:35.250Z,8.20
2022-11-05T20:59:03.517Z,7.83
2022-11-05T21:01:33.759Z,8.00
2022-11-05T21:04:01.613Z,7.90
2022-11-05T21:06:29.176Z,7.63
2022-11-05T21:08:56.392Z,7.87
2022-11-05T21:11:23.605Z,8.07
2022-11-05T21:13:50.759Z,7.73
2022-11-05T21:16:19.585Z,7.00
2022-11-05T21:18:47.442Z,7.90
2022-11-05T21:21:18.213Z,7.87
2022-11-05T21:23:46.106Z,7.67
2022-11-05T21:26:14.815Z,7.57
2022-11-05T21:28:42.737Z,9.07
2022-11-05T21:31:10.159Z,7.33
2022-11-05T21:33:38.019Z,8.63
2022-11-05T21:36:10.901Z,8.37
2022-11-05T21:38:39.370Z,9.10
2022-11-05T21:41:08.116Z,9.30
2022-11-05T21:43:37.556Z,8.23
2022-11-05T21:46:05.036Z,8.80
2022-11-05T21:48:32.638Z,9.07
2022-11-05T21:51:18.263Z,8.13
2022-11-05T21:54:04.837Z,7.60
2022-11-05T21:56:50.731Z,6.57
2022-11-05T21:59:42.095Z,7.50
2022-11-05T22:02:11.801Z,8.70
2022-11-05T22:04:42.841Z,6.13
2022-11-05T22:07:12.395Z,8.10
2022-11-05T22:09:39.627Z,7.40
2022-11-05T22:12:08.007Z,7.90
2022-11-05T22:14:35.519Z,7.77
2022-11-05T22:17:03.685Z,7.77
2022-11-05T22:19:31.629Z,7.70
2022-11-05T22:21:59.202Z,7.90
2022-11-05T22:24:28.129Z,7.80
2022-11-05T22:26:55.593Z,7.30
2022-11-05T22:29:23.680Z,7.60
2022-11-05T22:31:50.860Z,6.10
2022-11-05T22:34:18.252Z,6.27
2022-11-05T22:36:45.505Z,5.97
2022-11-05T22:39:13.186Z,6.17
2022-11-05T22:41:40.800Z,6.27
2022-11-05T22:44:10.187Z,6.60
2022-11-05T22:46:38.585Z,6.80
2022-11-05T22:49:07.061Z,5.87
2022-11-05T22:51:36.424Z,6.03
2022-11-05T22:54:03.999Z,5.80
2022-11-05T22:56:35.312Z,5.63
2022-11-05T22:59:03.167Z,5.47
2022-11-05T23:01:30.456Z,5.87
2022-11-05T23:03:58.343Z,5.70
2022-11-05T23:06:50.386Z,5.20
2022-11-05T23:09:42.220Z,5.10
2022-11-05T23:12:24.035Z,4.10
2022-11-05T23:14:52.287Z,5.13
2022-11-05T23:17:38.604Z,4.80
2022-11-05T23:20:26.779Z,4.57
2022-11-05T23:23:12.617Z,5.30
2022-11-05T23:25:40.153Z,4.33
2022-11-05T23:28:10.169Z,4.90
2022-11-05T23:31:00.568Z,4.63
2022-11-05T23:33:32.251Z,4.37
2022-11-05T23:36:18.015Z,4.00
2022-11-05T23:38:45.400Z,3.97
2022-11-05T23:41:31.145Z,4.10
2022-11-05T23:44:16.687Z,4.30
2022-11-05T23:47:02.827Z,5.30
2022-11-05T23:49:30.181Z,4.13
2022-11-05T23:51:57.496Z,4.40
2022-11-05T23:54:24.687Z,4.00
2022-11-05T23:56:51.946Z,3.80
2022-11-05T23:59:19.107Z,4.10
